Time;durP1;ratioP1;P1;durP2;ratioP2;P2;SDS_P1;SDS_P2;PMS_P1;PMS_P2;Temp;Humidity;BMP_temperature;BMP_pressure;BME280_temperature;BME280_humidity;BME280_pressure;Samples;Min_cycle;Max_cycle;Signal;HPM_P1;HPM_P2
2024/03/27 00:01:35;;;;;;;0.82;0.60;;;;;;;;;;5039628;28;20434;-81
2024/03/27 00:04:01;;;;;;;1.05;0.65;;;;;;;;;;5012482;28;20060;-82
2024/03/27 00:06:27;;;;;;;1.20;0.57;;;;;;;;;;5051413;28;20084;-81
2024/03/27 00:08:56;;;;;;;0.75;0.63;;;;;;;;;;5042359;28;20025;-77
2024/03/27 00:11:24;;;;;;;0.60;0.50;;;;;;;;;;5036269;28;20021;-80
2024/03/27 00:13:50;;;;;;;0.60;0.60;;;;;;;;;;5046290;28;20036;-81
2024/03/27 00:16:17;;;;;;;1.05;0.60;;;;;;;;;;5051462;28;20027;-81
2024/03/27 00:18:43;;;;;;;0.93;0.70;;;;;;;;;;5031205;28;20488;-82
2024/03/27 00:21:09;;;;;;;0.52;0.50;;;;;;;;;;5028939;28;20029;-81
2024/03/27 00:23:35;;;;;;;0.93;0.55;;;;;;;;;;5027849;28;20021;-82
2024/03/27 00:26:01;;;;;;;0.50;0.50;;;;;;;;;;5045184;28;20017;-81
2024/03/27 00:28:27;;;;;;;0.90;0.50;;;;;;;;;;5044175;28;20006;-79
2024/03/27 00:30:54;;;;;;;0.55;0.30;;;;;;;;;;5051100;28;20028;-81
2024/03/27 00:33:20;;;;;;;0.40;0.40;;;;;;;;;;5061652;28;20319;-80
2024/03/27 00:35:55;;;;;;;0.47;0.47;;;;;;;;;;5056470;28;20032;-81
2024/03/27 00:38:22;;;;;;;0.55;0.50;;;;;;;;;;5043490;28;20014;-78
2024/03/27 00:40:48;;;;;;;1.58;0.60;;;;;;;;;;5031372;28;20056;-79
2024/03/27 00:43:15;;;;;;;0.40;0.40;;;;;;;;;;5035019;28;20037;-81
2024/03/27 00:45:41;;;;;;;0.50;0.50;;;;;;;;;;5037731;28;20088;-79
2024/03/27 00:48:07;;;;;;;0.45;0.45;;;;;;;;;;5035978;28;20022;-78
2024/03/27 00:50:34;;;;;;;0.40;0.30;;;;;;;;;;5071333;28;20005;-77
2024/03/27 00:53:00;;;;;;;0.32;0.32;;;;;;;;;;5053302;28;20030;-78
2024/03/27 00:55:27;;;;;;;0.52;0.40;;;;;;;;;;5019067;28;20033;-77
2024/03/27 00:57:53;;;;;;;0.40;0.40;;;;;;;;;;5067483;28;20020;-79
2024/03/27 01:00:19;;;;;;;0.55;0.50;;;;;;;;;;5030053;28;20018;-78
2024/03/27 01:02:47;;;;;;;0.60;0.50;;;;;;;;;;5054286;28;20045;-78
2024/03/27 01:05:13;;;;;;;0.20;0.20;;;;;;;;;;5058308;28;20038;-78
2024/03/27 01:07:41;;;;;;;0.35;0.25;;;;;;;;;;5065110;28;20025;-77
2024/03/27 01:10:08;;;;;;;0.40;0.40;;;;;;;;;;5022873;28;20076;-80
2024/03/27 01:12:34;;;;;;;0.20;0.20;;;;;;;;;;5042168;28;20487;-81
2024/03/27 01:15:01;;;;;;;0.47;0.40;;;;;;;;;;5040749;28;20041;-79
2024/03/27 01:17:27;;;;;;;0.40;0.40;;;;;;;;;;5052572;28;20630;-82
2024/03/27 01:19:53;;;;;;;0.40;0.40;;;;;;;;;;5025077;28;20042;-79
2024/03/27 01:22:19;;;;;;;0.30;0.30;;;;;;;;;;5031195;28;20036;-79
2024/03/27 01:24:45;;;;;;;0.35;0.35;;;;;;;;;;5025524;28;20040;-80
2024/03/27 01:27:11;;;;;;;0.60;0.32;;;;;;;;;;5054782;28;20379;-80
2024/03/27 01:29:37;;;;;;;0.30;0.30;;;;;;;;;;5041090;28;20009;-80
2024/03/27 01:32:03;;;;;;;0.30;0.30;;;;;;;;;;5025172;28;20397;-80
2024/03/27 01:34:32;;;;;;;0.57;0.30;;;;;;;;;;5027612;28;20026;-82
2024/03/27 01:36:59;;;;;;;0.65;0.45;;;;;;;;;;5011918;28;20041;-83
2024/03/27 01:39:25;;;;;;;0.85;0.20;;;;;;;;;;5044626;28;20411;-80
2024/03/27 01:41:52;;;;;;;0.40;0.30;;;;;;;;;;5049771;28;20021;-81
2024/03/27 01:44:19;;;;;;;0.20;0.20;;;;;;;;;;5029112;28;20025;-80
2024/03/27 01:46:50;;;;;;;0.35;0.30;;;;;;;;;;5054939;28;20016;-79
2024/03/27 01:49:16;;;;;;;0.47;0.32;;;;;;;;;;5052864;28;20051;-79
2024/03/27 01:51:42;;;;;;;0.60;0.30;;;;;;;;;;5050670;28;20028;-79
2024/03/27 01:54:10;;;;;;;0.60;0.40;;;;;;;;;;5047669;28;20033;-80
2024/03/27 01:56:36;;;;;;;0.52;0.30;;;;;;;;;;5055523;28;20055;-77
2024/03/27 01:59:03;;;;;;;0.30;0.30;;;;;;;;;;5039634;28;20022;-81
2024/03/27 02:01:32;;;;;;;0.22;0.22;;;;;;;;;;5039710;28;20329;-80
2024/03/27 02:03:59;;;;;;;0.30;0.30;;;;;;;;;;5046387;28;20086;-80
2024/03/27 02:06:26;;;;;;;0.30;0.10;;;;;;;;;;5043046;28;20017;-80
2024/03/27 02:08:52;;;;;;;0.82;0.20;;;;;;;;;;5050559;28;20035;-79
2024/03/27 02:11:19;;;;;;;0.15;0.10;;;;;;;;;;5052680;28;20021;-79
2024/03/27 02:13:45;;;;;;;0.30;0.20;;;;;;;;;;5051954;28;20017;-79
2024/03/27 02:16:12;;;;;;;0.20;0.10;;;;;;;;;;5053636;28;20059;-81
2024/03/27 02:18:38;;;;;;;0.10;0.10;;;;;;;;;;5048889;28;20013;-79
2024/03/27 02:21:04;;;;;;;0.20;0.20;;;;;;;;;;5048303;28;20077;-80
2024/03/27 02:23:36;;;;;;;0.20;0.20;;;;;;;;;;5053020;28;20060;-78
2024/03/27 02:26:05;;;;;;;0.20;0.20;;;;;;;;;;5059777;28;20066;-81
2024/03/27 02:28:32;;;;;;;0.25;0.22;;;;;;;;;;5047191;28;20041;-78
2024/03/27 02:30:58;;;;;;;0.20;0.20;;;;;;;;;;5046994;28;20017;-79
2024/03/27 02:33:24;;;;;;;0.15;0.15;;;;;;;;;;5050347;28;20033;-81
2024/03/27 02:35:50;;;;;;;0.30;0.25;;;;;;;;;;5028966;28;20036;-80
2024/03/27 02:38:16;;;;;;;0.15;0.15;;;;;;;;;;5047030;28;20054;-80
2024/03/27 02:40:42;;;;;;;0.13;0.13;;;;;;;;;;5043439;28;20025;-79
2024/03/27 02:43:08;;;;;;;0.20;0.20;;;;;;;;;;5041788;28;20141;-81
2024/03/27 02:45:34;;;;;;;0.40;0.30;;;;;;;;;;5034850;28;20054;-80
2024/03/27 02:48:00;;;;;;;0.10;0.10;;;;;;;;;;5034001;28;20025;-81
2024/03/27 02:50:27;;;;;;;0.13;0.13;;;;;;;;;;5037222;28;20025;-82
2024/03/27 02:52:53;;;;;;;0.22;0.10;;;;;;;;;;5041527;28;20017;-81
2024/03/27 02:55:19;;;;;;;0.20;0.20;;;;;;;;;;5038928;28;20086;-79
2024/03/27 02:57:45;;;;;;;0.35;0.13;;;;;;;;;;5047632;28;20021;-80
2024/03/27 03:00:11;;;;;;;0.10;0.10;;;;;;;;;;5049883;28;20108;-81
2024/03/27 03:02:37;;;;;;;0.30;0.30;;;;;;;;;;5034579;28;20060;-80
2024/03/27 03:05:03;;;;;;;0.10;0.10;;;;;;;;;;5037190;28;20033;-80
2024/03/27 03:07:30;;;;;;;0.75;0.15;;;;;;;;;;5038063;28;20036;-76
2024/03/27 03:09:56;;;;;;;0.20;0.20;;;;;;;;;;5050002;28;20029;-79
2024/03/27 03:12:22;;;;;;;0.10;0.10;;;;;;;;;;5050651;28;20045;-79
2024/03/27 03:14:50;;;;;;;0.10;0.10;;;;;;;;;;5053548;28;20017;-78
2024/03/27 03:17:16;;;;;;;0.25;0.20;;;;;;;;;;5054525;28;20052;-80
2024/03/27 03:19:42;;;;;;;0.10;0.10;;;;;;;;;;5057145;28;20052;-80
2024/03/27 03:22:11;;;;;;;0.10;0.10;;;;;;;;;;5054686;28;20064;-79
2024/03/27 03:24:37;;;;;;;0.15;0.10;;;;;;;;;;5023337;28;20022;-77
2024/03/27 03:27:03;;;;;;;0.10;0.10;;;;;;;;;;5039935;28;20124;-81
2024/03/27 03:29:29;;;;;;;0.00;0.00;;;;;;;;;;5021470;28;20069;-82
2024/03/27 03:31:56;;;;;;;0.10;0.10;;;;;;;;;;5019946;28;20029;-82
2024/03/27 03:34:22;;;;;;;0.10;0.10;;;;;;;;;;5019760;28;20151;-81
2024/03/27 03:36:48;;;;;;;0.10;0.10;;;;;;;;;;5023439;28;20143;-80
2024/03/27 03:39:15;;;;;;;0.20;0.20;;;;;;;;;;5042132;28;20159;-81
2024/03/27 03:41:41;;;;;;;0.00;0.00;;;;;;;;;;5028281;28;20025;-80
2024/03/27 03:44:07;;;;;;;0.03;0.03;;;;;;;;;;5052830;28;20033;-79
2024/03/27 03:46:33;;;;;;;0.10;0.10;;;;;;;;;;5049281;28;20101;-81
2024/03/27 03:49:00;;;;;;;0.10;0.10;;;;;;;;;;5046209;28;20036;-79
2024/03/27 03:51:26;;;;;;;0.10;0.10;;;;;;;;;;5035451;28;20022;-79
2024/03/27 03:53:53;;;;;;;0.47;0.10;;;;;;;;;;5039529;28;20029;-79
2024/03/27 03:56:19;;;;;;;0.20;0.10;;;;;;;;;;5040898;28;20010;-80
2024/03/27 03:58:45;;;;;;;0.28;0.10;;;;;;;;;;5036489;28;20032;-81
2024/03/27 04:01:11;;;;;;;0.10;0.10;;;;;;;;;;5047200;28;20048;-81
2024/03/27 04:03:38;;;;;;;0.10;0.10;;;;;;;;;;5044466;28;20100;-81
2024/03/27 04:06:04;;;;;;;0.13;0.13;;;;;;;;;;5037469;28;20073;-79
2024/03/27 04:08:30;;;;;;;0.10;0.10;;;;;;;;;;5034366;28;20028;-77
2024/03/27 04:10:56;;;;;;;0.13;0.10;;;;;;;;;;5020938;28;20025;-76
2024/03/27 04:13:23;;;;;;;0.20;0.20;;;;;;;;;;5036563;28;20076;-78
2024/03/27 04:15:49;;;;;;;0.20;0.20;;;;;;;;;;5009114;28;20032;-78
2024/03/27 04:18:15;;;;;;;0.20;0.20;;;;;;;;;;5019382;28;20033;-77
2024/03/27 04:20:41;;;;;;;0.30;0.28;;;;;;;;;;5006332;28;20041;-77
2024/03/27 04:23:07;;;;;;;0.20;0.20;;;;;;;;;;5026195;28;20464;-78
2024/03/27 04:25:35;;;;;;;0.00;0.00;;;;;;;;;;5043471;28;20078;-79
2024/03/27 04:28:01;;;;;;;0.50;0.20;;;;;;;;;;5047864;28;20036;-77
2024/03/27 04:30:27;;;;;;;0.17;0.17;;;;;;;;;;5038137;28;20036;-78
2024/03/27 04:32:54;;;;;;;0.20;0.20;;;;;;;;;;5019575;28;20036;-78
2024/03/27 04:35:20;;;;;;;0.10;0.10;;;;;;;;;;5026477;28;20126;-78
2024/03/27 04:37:46;;;;;;;0.30;0.30;;;;;;;;;;5031751;28;20055;-78
2024/03/27 04:40:13;;;;;;;0.20;0.20;;;;;;;;;;5020413;28;20021;-78
2024/03/27 04:42:39;;;;;;;0.35;0.20;;;;;;;;;;5039767;28;20492;-77
2024/03/27 04:45:05;;;;;;;0.57;0.17;;;;;;;;;;4999144;28;20101;-79
2024/03/27 04:47:32;;;;;;;0.20;0.20;;;;;;;;;;5018100;28;20045;-78
2024/03/27 04:49:58;;;;;;;0.17;0.10;;;;;;;;;;5027954;28;20033;-78
2024/03/27 04:52:24;;;;;;;0.20;0.10;;;;;;;;;;5029914;28;20025;-78
2024/03/27 04:54:50;;;;;;;0.10;0.10;;;;;;;;;;5039424;28;20436;-79
2024/03/27 04:57:16;;;;;;;0.20;0.10;;;;;;;;;;5030698;28;20030;-79
2024/03/27 04:59:43;;;;;;;0.57;0.30;;;;;;;;;;5034845;28;20018;-79
2024/03/27 05:02:09;;;;;;;0.20;0.20;;;;;;;;;;5012476;28;20030;-79
2024/03/27 05:04:35;;;;;;;0.10;0.10;;;;;;;;;;5014561;28;20326;-77
2024/03/27 05:07:01;;;;;;;0.28;0.10;;;;;;;;;;5028966;28;20029;-76
2024/03/27 05:09:27;;;;;;;0.43;0.20;;;;;;;;;;5040310;28;20030;-79
2024/03/27 05:11:53;;;;;;;0.32;0.32;;;;;;;;;;5034763;28;20022;-79
2024/03/27 05:14:20;;;;;;;0.20;0.20;;;;;;;;;;5003309;28;20121;-78
2024/03/27 05:16:46;;;;;;;0.10;0.10;;;;;;;;;;5032911;28;20461;-79
2024/03/27 05:19:12;;;;;;;0.32;0.20;;;;;;;;;;5037269;28;20105;-79
2024/03/27 05:21:39;;;;;;;1.45;0.35;;;;;;;;;;5043314;28;20025;-80
2024/03/27 05:24:05;;;;;;;0.30;0.30;;;;;;;;;;5025771;28;20029;-80
2024/03/27 05:26:32;;;;;;;0.30;0.30;;;;;;;;;;5048845;28;20024;-80
2024/03/27 05:28:58;;;;;;;0.32;0.30;;;;;;;;;;5032825;28;20026;-79
2024/03/27 05:31:25;;;;;;;0.40;0.40;;;;;;;;;;5026923;28;20155;-79
2024/03/27 05:33:51;;;;;;;0.63;0.45;;;;;;;;;;5034235;28;20030;-80
2024/03/27 05:36:17;;;;;;;0.40;0.40;;;;;;;;;;5044479;28;20033;-80
2024/03/27 05:38:43;;;;;;;0.35;0.35;;;;;;;;;;5015378;28;20068;-79
2024/03/27 05:41:09;;;;;;;0.95;0.50;;;;;;;;;;5011738;28;20080;-79
2024/03/27 05:43:35;;;;;;;0.75;0.50;;;;;;;;;;5031957;28;20057;-80
2024/03/27 05:46:02;;;;;;;0.30;0.30;;;;;;;;;;5022019;28;20037;-79
2024/03/27 05:48:28;;;;;;;0.85;0.50;;;;;;;;;;5026659;28;20030;-79
2024/03/27 05:50:54;;;;;;;0.32;0.20;;;;;;;;;;5017505;28;20121;-79
2024/03/27 05:53:20;;;;;;;0.20;0.20;;;;;;;;;;5022907;28;20081;-79
2024/03/27 05:55:56;;;;;;;0.70;0.50;;;;;;;;;;5017819;28;20060;-80
2024/03/27 05:58:22;;;;;;;0.25;0.25;;;;;;;;;;5019549;28;20068;-79
2024/03/27 06:00:48;;;;;;;0.10;0.10;;;;;;;;;;5034869;28;20024;-79
2024/03/27 06:03:14;;;;;;;0.22;0.20;;;;;;;;;;5039753;28;20037;-79
2024/03/27 06:05:41;;;;;;;0.30;0.30;;;;;;;;;;5045114;28;20156;-79
2024/03/27 06:08:07;;;;;;;0.63;0.20;;;;;;;;;;5019637;28;20037;-78
2024/03/27 06:10:33;;;;;;;0.20;0.20;;;;;;;;;;5038174;28;20024;-78
2024/03/27 06:13:06;;;;;;;0.20;0.20;;;;;;;;;;5039069;28;20032;-79
2024/03/27 06:15:33;;;;;;;0.17;0.17;;;;;;;;;;5025885;28;20053;-81
2024/03/27 06:18:02;;;;;;;0.28;0.20;;;;;;;;;;5046620;28;20033;-79
2024/03/27 06:20:28;;;;;;;0.17;0.17;;;;;;;;;;5031451;28;20044;-78
2024/03/27 06:22:57;;;;;;;1.35;0.60;;;;;;;;;;5038972;28;20029;-78
2024/03/27 06:25:23;;;;;;;0.50;0.50;;;;;;;;;;5042283;28;20545;-80
2024/03/27 06:27:49;;;;;;;0.98;0.73;;;;;;;;;;5040459;28;20036;-78
2024/03/27 06:30:16;;;;;;;0.93;0.70;;;;;;;;;;5040456;28;20033;-78
2024/03/27 06:32:43;;;;;;;1.08;0.57;;;;;;;;;;5052034;28;20028;-79
2024/03/27 06:35:09;;;;;;;0.68;0.60;;;;;;;;;;5041110;28;20038;-79
2024/03/27 06:37:36;;;;;;;0.95;0.50;;;;;;;;;;5043031;28;20025;-79
2024/03/27 06:40:02;;;;;;;1.17;0.70;;;;;;;;;;5024532;28;20545;-79
2024/03/27 06:42:28;;;;;;;0.50;0.50;;;;;;;;;;5046230;28;20112;-78
2024/03/27 06:44:54;;;;;;;0.45;0.43;;;;;;;;;;5037566;28;20535;-80
2024/03/27 06:47:26;;;;;;;0.65;0.50;;;;;;;;;;5019820;28;20029;-78
2024/03/27 06:49:52;;;;;;;0.65;0.55;;;;;;;;;;5045473;28;20021;-78
2024/03/27 06:52:19;;;;;;;1.55;0.80;;;;;;;;;;5044610;28;20026;-79
2024/03/27 06:54:48;;;;;;;1.88;0.90;;;;;;;;;;5054259;28;20027;-76
2024/03/27 06:57:14;;;;;;;3.35;1.35;;;;;;;;;;5050342;28;20048;-76
2024/03/27 06:59:40;;;;;;;1.95;1.20;;;;;;;;;;5053063;28;20037;-78
2024/03/27 07:02:06;;;;;;;1.52;0.98;;;;;;;;;;5047672;28;20060;-77
2024/03/27 07:04:32;;;;;;;2.38;1.38;;;;;;;;;;5064593;28;20044;-76
2024/03/27 07:06:58;;;;;;;1.42;0.98;;;;;;;;;;5060523;28;20052;-78
2024/03/27 07:09:25;;;;;;;0.85;0.75;;;;;;;;;;5057317;28;20041;-78
2024/03/27 07:11:52;;;;;;;1.40;0.85;;;;;;;;;;5025359;28;20032;-78
2024/03/27 07:14:19;;;;;;;1.08;0.73;;;;;;;;;;5050232;28;20022;-78
2024/03/27 07:16:45;;;;;;;1.67;1.10;;;;;;;;;;5054855;28;20029;-78
2024/03/27 07:19:11;;;;;;;1.23;1.05;;;;;;;;;;5038492;28;20033;-78
2024/03/27 07:21:37;;;;;;;1.30;1.10;;;;;;;;;;5042506;28;20328;-78
2024/03/27 07:24:06;;;;;;;1.88;1.00;;;;;;;;;;5041866;28;20045;-78
2024/03/27 07:26:33;;;;;;;2.95;1.40;;;;;;;;;;5054761;28;20035;-76
2024/03/27 07:28:59;;;;;;;1.88;1.20;;;;;;;;;;5044213;28;20056;-79
2024/03/27 07:31:25;;;;;;;2.30;1.48;;;;;;;;;;5040266;28;20021;-80
2024/03/27 07:33:51;;;;;;;2.25;1.15;;;;;;;;;;5051692;28;20025;-78
2024/03/27 07:36:18;;;;;;;1.65;1.20;;;;;;;;;;5038377;28;20029;-79
2024/03/27 07:38:44;;;;;;;1.35;0.98;;;;;;;;;;5051266;28;20468;-79
2024/03/27 07:41:10;;;;;;;1.65;1.00;;;;;;;;;;5041299;28;20110;-79
2024/03/27 07:43:36;;;;;;;0.98;0.80;;;;;;;;;;5038466;28;20392;-77
2024/03/27 07:46:06;;;;;;;1.17;1.05;;;;;;;;;;5046707;28;20360;-78
2024/03/27 07:48:32;;;;;;;1.08;0.80;;;;;;;;;;5037942;28;20033;-79
2024/03/27 07:50:58;;;;;;;0.90;0.90;;;;;;;;;;5052582;28;20076;-78
2024/03/27 07:53:24;;;;;;;0.63;0.52;;;;;;;;;;5051415;28;20022;-78
2024/03/27 07:55:57;;;;;;;1.33;0.82;;;;;;;;;;5046034;28;20113;-77
2024/03/27 07:58:23;;;;;;;0.50;0.50;;;;;;;;;;5055319;28;20024;-77
2024/03/27 08:00:50;;;;;;;0.93;0.70;;;;;;;;;;5059229;28;20076;-79
2024/03/27 08:03:17;;;;;;;0.75;0.50;;;;;;;;;;5057656;28;20025;-78
2024/03/27 08:05:45;;;;;;;0.52;0.52;;;;;;;;;;5047171;28;20022;-78
2024/03/27 08:08:12;;;;;;;0.50;0.50;;;;;;;;;;5063606;28;20021;-79
2024/03/27 08:10:38;;;;;;;1.83;0.60;;;;;;;;;;5060941;28;20092;-78
2024/03/27 08:13:04;;;;;;;0.85;0.47;;;;;;;;;;5028278;28;20033;-79
2024/03/27 08:15:31;;;;;;;0.65;0.65;;;;;;;;;;5039552;28;20025;-78
2024/03/27 08:17:57;;;;;;;0.70;0.50;;;;;;;;;;5047952;28;20030;-78
2024/03/27 08:20:24;;;;;;;0.93;0.60;;;;;;;;;;5055159;28;20060;-78
2024/03/27 08:22:50;;;;;;;0.80;0.80;;;;;;;;;;5073152;28;20021;-78
2024/03/27 08:25:16;;;;;;;0.30;0.30;;;;;;;;;;5046457;28;20024;-77
2024/03/27 08:27:42;;;;;;;0.80;0.68;;;;;;;;;;5054696;28;20065;-77
2024/03/27 08:30:09;;;;;;;1.23;0.60;;;;;;;;;;5061894;28;20069;-77
2024/03/27 08:32:35;;;;;;;0.57;0.55;;;;;;;;;;5059955;28;20201;-78
2024/03/27 08:35:01;;;;;;;0.65;0.45;;;;;;;;;;5037705;28;20038;-76
2024/03/27 08:37:27;;;;;;;0.63;0.63;;;;;;;;;;5063246;28;20041;-78
2024/03/27 08:39:53;;;;;;;0.70;0.70;;;;;;;;;;5057196;28;20025;-77
2024/03/27 08:42:21;;;;;;;1.60;0.80;;;;;;;;;;5061075;28;20096;-77
2024/03/27 08:44:48;;;;;;;1.35;0.60;;;;;;;;;;5065096;28;20022;-77
2024/03/27 08:47:14;;;;;;;1.40;0.55;;;;;;;;;;5036086;28;20503;-80
2024/03/27 08:49:40;;;;;;;0.43;0.40;;;;;;;;;;5061179;28;20056;-80
2024/03/27 08:52:06;;;;;;;0.55;0.45;;;;;;;;;;5026753;28;20018;-79
2024/03/27 08:54:32;;;;;;;0.40;0.40;;;;;;;;;;5026613;28;20061;-80
2024/03/27 08:56:58;;;;;;;0.77;0.57;;;;;;;;;;5058579;28;20121;-79
2024/03/27 08:59:25;;;;;;;0.45;0.40;;;;;;;;;;5045980;28;20113;-80
2024/03/27 09:01:51;;;;;;;0.40;0.40;;;;;;;;;;5031704;28;20045;-78
2024/03/27 09:04:17;;;;;;;0.30;0.20;;;;;;;;;;5050326;28;20146;-78
2024/03/27 09:06:43;;;;;;;0.40;0.40;;;;;;;;;;5047900;28;20021;-79
2024/03/27 09:09:09;;;;;;;0.20;0.20;;;;;;;;;;5055501;28;20025;-78
2024/03/27 09:11:35;;;;;;;0.30;0.30;;;;;;;;;;5042852;28;20036;-79
2024/03/27 09:14:01;;;;;;;0.60;0.20;;;;;;;;;;5042551;28;20094;-79
2024/03/27 09:16:28;;;;;;;0.55;0.20;;;;;;;;;;5041949;28;20029;-79
2024/03/27 09:18:54;;;;;;;1.10;0.35;;;;;;;;;;5024549;28;20026;-79
2024/03/27 09:21:20;;;;;;;0.40;0.40;;;;;;;;;;5024128;28;20148;-78
2024/03/27 09:23:46;;;;;;;0.28;0.28;;;;;;;;;;5043094;28;20464;-78
2024/03/27 09:26:12;;;;;;;0.68;0.30;;;;;;;;;;5033343;28;20086;-78
2024/03/27 09:28:38;;;;;;;0.20;0.20;;;;;;;;;;5056097;28;20053;-76
2024/03/27 09:31:05;;;;;;;0.30;0.30;;;;;;;;;;5057874;28;20053;-78
2024/03/27 09:33:31;;;;;;;1.27;0.40;;;;;;;;;;5040644;28;20077;-75
2024/03/27 09:35:57;;;;;;;0.40;0.35;;;;;;;;;;5058301;28;20017;-76
2024/03/27 09:38:24;;;;;;;0.35;0.30;;;;;;;;;;5058188;28;20025;-77
2024/03/27 09:40:55;;;;;;;0.57;0.30;;;;;;;;;;5041148;28;20041;-77
2024/03/27 09:43:21;;;;;;;0.98;0.40;;;;;;;;;;5066341;28;20036;-76
2024/03/27 09:45:48;;;;;;;2.55;0.43;;;;;;;;;;5040835;28;20048;-76
2024/03/27 09:48:16;;;;;;;0.52;0.43;;;;;;;;;;5057037;28;20041;-77
2024/03/27 09:50:42;;;;;;;0.73;0.20;;;;;;;;;;5042719;28;20039;-78
2024/03/27 09:53:09;;;;;;;0.57;0.50;;;;;;;;;;5058672;28;20103;-78
2024/03/27 09:55:36;;;;;;;0.80;0.50;;;;;;;;;;5028253;28;20096;-81
2024/03/27 09:58:05;;;;;;;0.57;0.35;;;;;;;;;;5036784;28;20488;-79
2024/03/27 10:00:34;;;;;;;0.57;0.40;;;;;;;;;;5023248;28;20025;-79
2024/03/27 10:03:01;;;;;;;0.38;0.38;;;;;;;;;;5060055;28;20068;-76
2024/03/27 10:05:28;;;;;;;0.80;0.55;;;;;;;;;;5057767;28;20053;-77
2024/03/27 10:07:54;;;;;;;0.55;0.47;;;;;;;;;;5048013;28;20056;-78
2024/03/27 10:10:20;;;;;;;0.40;0.40;;;;;;;;;;5032217;28;20022;-76
2024/03/27 10:12:47;;;;;;;1.27;0.60;;;;;;;;;;5069090;28;20023;-76
2024/03/27 10:15:14;;;;;;;1.08;0.50;;;;;;;;;;5068239;28;20035;-77
2024/03/27 10:17:40;;;;;;;0.47;0.47;;;;;;;;;;5057834;28;20056;-76
2024/03/27 10:20:07;;;;;;;1.02;0.52;;;;;;;;;;5052921;28;20026;-80
2024/03/27 10:22:36;;;;;;;2.42;0.45;;;;;;;;;;5033177;28;20074;-78
2024/03/27 10:25:04;;;;;;;1.08;0.38;;;;;;;;;;5067946;28;20057;-77
2024/03/27 10:27:31;;;;;;;1.60;0.95;;;;;;;;;;5058826;28;20017;-77
2024/03/27 10:29:57;;;;;;;0.77;0.60;;;;;;;;;;5056458;28;20020;-79
2024/03/27 10:32:23;;;;;;;0.32;0.32;;;;;;;;;;5057406;28;20037;-79
2024/03/27 10:34:50;;;;;;;0.30;0.30;;;;;;;;;;5056397;28;20044;-78
2024/03/27 10:37:16;;;;;;;0.77;0.50;;;;;;;;;;5055182;28;20462;-78
2024/03/27 10:39:52;;;;;;;0.88;0.70;;;;;;;;;;5051299;28;20052;-79
2024/03/27 10:42:25;;;;;;;0.93;0.50;;;;;;;;;;5055869;28;20057;-79
2024/03/27 10:44:54;;;;;;;1.13;0.60;;;;;;;;;;5044208;28;20029;-78
2024/03/27 10:47:21;;;;;;;0.60;0.40;;;;;;;;;;5044897;28;20018;-79
2024/03/27 10:49:48;;;;;;;0.15;0.15;;;;;;;;;;5048826;28;20048;-79
2024/03/27 10:52:15;;;;;;;1.20;0.40;;;;;;;;;;5033921;28;20025;-79
2024/03/27 10:54:45;;;;;;;0.40;0.40;;;;;;;;;;5044312;28;20496;-79
2024/03/27 10:57:17;;;;;;;1.85;0.68;;;;;;;;;;5050391;28;20071;-79
2024/03/27 10:59:44;;;;;;;1.42;0.35;;;;;;;;;;5056591;28;20361;-79
2024/03/27 11:02:12;;;;;;;0.60;0.40;;;;;;;;;;5040772;28;20100;-79
2024/03/27 11:04:41;;;;;;;0.70;0.30;;;;;;;;;;5039859;28;20025;-78
2024/03/27 11:07:08;;;;;;;0.45;0.40;;;;;;;;;;5022144;28;20021;-79
2024/03/27 11:09:35;;;;;;;1.10;0.45;;;;;;;;;;5048693;28;20017;-77
2024/03/27 11:12:04;;;;;;;0.63;0.40;;;;;;;;;;5046571;28;20025;-79
2024/03/27 11:14:37;;;;;;;0.38;0.30;;;;;;;;;;5041283;28;20030;-79
2024/03/27 11:17:03;;;;;;;0.57;0.50;;;;;;;;;;5049310;28;20039;-78
2024/03/27 11:19:33;;;;;;;0.70;0.40;;;;;;;;;;5040688;28;20031;-78
2024/03/27 11:22:03;;;;;;;0.55;0.55;;;;;;;;;;5040404;28;20148;-80
2024/03/27 11:24:29;;;;;;;0.55;0.30;;;;;;;;;;5030065;28;20029;-80
2024/03/27 11:26:58;;;;;;;0.47;0.20;;;;;;;;;;5044555;28;20021;-80
2024/03/27 11:29:25;;;;;;;0.43;0.35;;;;;;;;;;5049015;28;20117;-78
2024/03/27 11:31:52;;;;;;;0.68;0.43;;;;;;;;;;5039253;28;20428;-79
2024/03/27 11:34:18;;;;;;;0.47;0.47;;;;;;;;;;5040846;28;20105;-79
2024/03/27 11:36:45;;;;;;;0.50;0.35;;;;;;;;;;5040194;28;20033;-79
2024/03/27 11:39:13;;;;;;;0.32;0.32;;;;;;;;;;5022390;28;20053;-80
2024/03/27 11:41:39;;;;;;;0.50;0.50;;;;;;;;;;5049028;28;20100;-80
2024/03/27 11:44:05;;;;;;;1.60;0.50;;;;;;;;;;5040273;28;20114;-80
2024/03/27 11:46:32;;;;;;;1.95;0.45;;;;;;;;;;5034725;28;20029;-79
2024/03/27 11:48:58;;;;;;;0.30;0.30;;;;;;;;;;5031088;28;20044;-79
2024/03/27 11:51:24;;;;;;;0.77;0.50;;;;;;;;;;5041359;28;20029;-77
2024/03/27 11:53:51;;;;;;;1.88;0.50;;;;;;;;;;5053313;28;20103;-80
2024/03/27 11:56:17;;;;;;;1.30;0.47;;;;;;;;;;5051528;28;20088;-80
2024/03/27 11:58:43;;;;;;;0.30;0.30;;;;;;;;;;5041093;28;20092;-80
2024/03/27 12:01:10;;;;;;;0.40;0.35;;;;;;;;;;5052483;28;20045;-76
2024/03/27 12:03:39;;;;;;;0.60;0.40;;;;;;;;;;5059037;28;20036;-78
2024/03/27 12:06:05;;;;;;;2.05;0.40;;;;;;;;;;5066707;28;20325;-76
2024/03/27 12:08:32;;;;;;;0.40;0.40;;;;;;;;;;5067094;28;20029;-78
2024/03/27 12:10:59;;;;;;;0.68;0.38;;;;;;;;;;5061158;28;20037;-79
2024/03/27 12:13:25;;;;;;;1.02;0.57;;;;;;;;;;5075593;28;20033;-76
2024/03/27 12:15:52;;;;;;;1.75;0.38;;;;;;;;;;5065761;28;20091;-77
2024/03/27 12:18:18;;;;;;;0.60;0.40;;;;;;;;;;5053750;28;20033;-80
2024/03/27 12:20:44;;;;;;;0.30;0.30;;;;;;;;;;5026599;28;20113;-79
2024/03/27 12:23:11;;;;;;;0.95;0.50;;;;;;;;;;5055877;28;20025;-79
2024/03/27 12:25:37;;;;;;;2.28;0.40;;;;;;;;;;5037727;28;20018;-79
2024/03/27 12:28:06;;;;;;;0.73;0.40;;;;;;;;;;5053392;28;20358;-81
2024/03/27 12:30:39;;;;;;;0.30;0.30;;;;;;;;;;5043666;28;20021;-79
2024/03/27 12:33:05;;;;;;;0.40;0.40;;;;;;;;;;5060095;28;20045;-80
2024/03/27 12:35:32;;;;;;;1.00;0.40;;;;;;;;;;5045523;28;20029;-80
2024/03/27 12:37:59;;;;;;;1.10;0.30;;;;;;;;;;5043724;28;20037;-78
2024/03/27 12:40:25;;;;;;;0.30;0.30;;;;;;;;;;5024502;28;20028;-79
2024/03/27 12:42:51;;;;;;;0.45;0.30;;;;;;;;;;5042975;28;20569;-79
2024/03/27 12:45:17;;;;;;;0.70;0.25;;;;;;;;;;5042842;28;20036;-80
2024/03/27 12:47:44;;;;;;;0.30;0.30;;;;;;;;;;5042273;28;20160;-80
2024/03/27 12:50:10;;;;;;;0.30;0.30;;;;;;;;;;5043862;28;20646;-80
2024/03/27 12:52:38;;;;;;;0.32;0.22;;;;;;;;;;5043270;28;20084;-80
2024/03/27 12:55:04;;;;;;;0.30;0.20;;;;;;;;;;5042834;28;20053;-78
2024/03/27 12:57:31;;;;;;;0.40;0.40;;;;;;;;;;5035344;28;20021;-80
2024/03/27 12:59:57;;;;;;;1.75;0.65;;;;;;;;;;5045020;28;20483;-80
2024/03/27 13:02:23;;;;;;;0.52;0.30;;;;;;;;;;5051542;28;20430;-79
2024/03/27 13:04:49;;;;;;;2.38;1.00;;;;;;;;;;5051128;28;20025;-79
2024/03/27 13:07:15;;;;;;;2.13;0.30;;;;;;;;;;5050587;28;20104;-79
2024/03/27 13:09:41;;;;;;;0.57;0.40;;;;;;;;;;5039084;28;20024;-79
2024/03/27 13:12:08;;;;;;;1.58;0.70;;;;;;;;;;5059202;28;20068;-76
2024/03/27 13:14:34;;;;;;;0.50;0.50;;;;;;;;;;5059145;28;20060;-79
2024/03/27 13:17:00;;;;;;;0.30;0.30;;;;;;;;;;5062074;28;20028;-76
2024/03/27 13:19:27;;;;;;;1.67;0.82;;;;;;;;;;5052787;28;20070;-76
2024/03/27 13:21:53;;;;;;;0.40;0.40;;;;;;;;;;5044448;28;20022;-80
2024/03/27 13:24:19;;;;;;;0.30;0.30;;;;;;;;;;5047373;28;20024;-78
2024/03/27 13:26:45;;;;;;;0.30;0.30;;;;;;;;;;5022160;28;20045;-79
2024/03/27 13:29:11;;;;;;;0.40;0.40;;;;;;;;;;5031894;28;20026;-81
2024/03/27 13:31:37;;;;;;;0.93;0.40;;;;;;;;;;5034754;28;20042;-80
2024/03/27 13:34:03;;;;;;;0.63;0.40;;;;;;;;;;5036440;28;20112;-80
2024/03/27 13:36:30;;;;;;;0.60;0.45;;;;;;;;;;5008472;28;20104;-80
2024/03/27 13:38:56;;;;;;;1.73;0.50;;;;;;;;;;5039726;28;20440;-79
2024/03/27 13:41:22;;;;;;;1.52;0.30;;;;;;;;;;5044132;28;20136;-77
2024/03/27 13:43:48;;;;;;;0.90;0.40;;;;;;;;;;5064211;28;20103;-78
2024/03/27 13:46:15;;;;;;;1.08;0.45;;;;;;;;;;5036246;28;20049;-76
2024/03/27 13:48:41;;;;;;;0.38;0.38;;;;;;;;;;5064543;28;20033;-78
2024/03/27 13:51:07;;;;;;;1.25;0.43;;;;;;;;;;5042987;28;20041;-77
2024/03/27 13:53:34;;;;;;;1.13;0.75;;;;;;;;;;5043020;28;20037;-80
2024/03/27 13:56:00;;;;;;;1.75;0.60;;;;;;;;;;5030511;28;20567;-80
2024/03/27 13:58:26;;;;;;;0.60;0.38;;;;;;;;;;5040944;28;20523;-81
2024/03/27 14:00:52;;;;;;;0.30;0.30;;;;;;;;;;5034328;28;20539;-80
2024/03/27 14:03:18;;;;;;;0.68;0.30;;;;;;;;;;5025546;28;20037;-81
2024/03/27 14:05:45;;;;;;;0.20;0.20;;;;;;;;;;5007853;28;20025;-79
2024/03/27 14:08:11;;;;;;;0.45;0.40;;;;;;;;;;5034918;28;20059;-77
2024/03/27 14:10:39;;;;;;;1.27;0.40;;;;;;;;;;5041948;28;20042;-76
2024/03/27 14:13:05;;;;;;;1.20;0.90;;;;;;;;;;5038016;28;20038;-80
2024/03/27 14:15:31;;;;;;;5.15;1.33;;;;;;;;;;5027340;28;20049;-80
2024/03/27 14:17:57;;;;;;;3.25;1.48;;;;;;;;;;5027452;28;20037;-79
2024/03/27 14:20:23;;;;;;;5.57;1.95;;;;;;;;;;5010519;28;20080;-79
2024/03/27 14:22:49;;;;;;;6.07;2.17;;;;;;;;;;5001960;28;20029;-79
2024/03/27 14:25:16;;;;;;;2.78;1.70;;;;;;;;;;5026562;28;20060;-79
2024/03/27 14:27:42;;;;;;;5.65;1.77;;;;;;;;;;5035439;28;20048;-79
2024/03/27 14:30:09;;;;;;;13.40;3.75;;;;;;;;;;5002561;28;20073;-79
2024/03/27 14:32:36;;;;;;;4.68;1.98;;;;;;;;;;5016030;28;20032;-79
2024/03/27 14:35:02;;;;;;;4.53;2.00;;;;;;;;;;5030294;28;20555;-79
2024/03/27 14:37:28;;;;;;;4.38;2.03;;;;;;;;;;5027487;28;20107;-80
2024/03/27 14:39:56;;;;;;;2.50;2.17;;;;;;;;;;5038324;28;20521;-80